sensor_id;sensor_type;location;lat;lon;timestamp;temperature;humidity
67557;DHT22;54387;53.526;49.300;2023-08-06T00:01:09;22.70;63.90
67557;DHT22;54387;53.526;49.300;2023-08-06T00:03:40;22.70;63.90
67557;DHT22;54387;53.526;49.300;2023-08-06T00:06:11;22.70;63.80
67557;DHT22;54387;53.526;49.300;2023-08-06T00:08:43;22.60;63.90
67557;DHT22;54387;53.526;49.300;2023-08-06T00:11:14;22.60;64.00
67557;DHT22;54387;53.526;49.300;2023-08-06T00:13:46;22.50;63.90
67557;DHT22;54387;53.526;49.300;2023-08-06T00:16:17;22.50;64.10
67557;DHT22;54387;53.526;49.300;2023-08-06T00:18:48;22.50;63.90
67557;DHT22;54387;53.526;49.300;2023-08-06T00:21:20;22.50;63.90
67557;DHT22;54387;53.526;49.300;2023-08-06T00:23:51;22.50;63.90
67557;DHT22;54387;53.526;49.300;2023-08-06T00:26:23;22.40;64.10
67557;DHT22;54387;53.526;49.300;2023-08-06T00:28:54;22.40;64.20
67557;DHT22;54387;53.526;49.300;2023-08-06T00:31:25;22.40;64.30
67557;DHT22;54387;53.526;49.300;2023-08-06T00:33:57;22.40;64.20
67557;DHT22;54387;53.526;49.300;2023-08-06T00:36:28;22.40;64.30
67557;DHT22;54387;53.526;49.300;2023-08-06T00:39:00;22.30;64.30
67557;DHT22;54387;53.526;49.300;2023-08-06T00:41:31;22.30;64.20
67557;DHT22;54387;53.526;49.300;2023-08-06T00:44:02;22.30;64.10
67557;DHT22;54387;53.526;49.300;2023-08-06T00:46:34;22.30;64.30
67557;DHT22;54387;53.526;49.300;2023-08-06T00:49:05;22.30;64.20
67557;DHT22;54387;53.526;49.300;2023-08-06T00:51:36;22.20;64.00
67557;DHT22;54387;53.526;49.300;2023-08-06T00:54:08;22.20;64.10
67557;DHT22;54387;53.526;49.300;2023-08-06T00:56:40;22.20;64.30
67557;DHT22;54387;53.526;49.300;2023-08-06T00:59:13;22.20;64.80
67557;DHT22;54387;53.526;49.300;2023-08-06T01:01:44;22.20;64.30
67557;DHT22;54387;53.526;49.300;2023-08-06T01:04:16;22.20;64.30
67557;DHT22;54387;53.526;49.300;2023-08-06T01:06:48;22.20;64.30
67557;DHT22;54387;53.526;49.300;2023-08-06T01:09:40;22.10;64.30
67557;DHT22;54387;53.526;49.300;2023-08-06T01:15:07;22.10;64.40
67557;DHT22;54387;53.526;49.300;2023-08-06T01:17:41;22.10;64.40
67557;DHT22;54387;53.526;49.300;2023-08-06T01:20:13;22.10;64.40
67557;DHT22;54387;53.526;49.300;2023-08-06T01:22:44;22.10;64.60
67557;DHT22;54387;53.526;49.300;2023-08-06T01:25:15;22.10;64.60
67557;DHT22;54387;53.526;49.300;2023-08-06T01:27:48;22.10;64.50
67557;DHT22;54387;53.526;49.300;2023-08-06T01:30:22;22.10;64.60
67557;DHT22;54387;53.526;49.300;2023-08-06T01:33:00;22.10;64.70
67557;DHT22;54387;53.526;49.300;2023-08-06T01:35:34;22.00;64.70
67557;DHT22;54387;53.526;49.300;2023-08-06T01:38:06;22.00;64.60
67557;DHT22;54387;53.526;49.300;2023-08-06T01:40:38;22.00;64.60
67557;DHT22;54387;53.526;49.300;2023-08-06T01:43:09;22.00;64.70
67557;DHT22;54387;53.526;49.300;2023-08-06T01:45:41;22.00;64.70
67557;DHT22;54387;53.526;49.300;2023-08-06T01:48:12;22.00;64.70
67557;DHT22;54387;53.526;49.300;2023-08-06T01:50:44;22.00;64.70
67557;DHT22;54387;53.526;49.300;2023-08-06T01:53:15;22.00;64.60
67557;DHT22;54387;53.526;49.300;2023-08-06T01:55:49;22.00;64.60
67557;DHT22;54387;53.526;49.300;2023-08-06T01:58:21;22.00;64.60
67557;DHT22;54387;53.526;49.300;2023-08-06T02:00:52;22.00;64.60
67557;DHT22;54387;53.526;49.300;2023-08-06T02:03:23;22.00;64.60
67557;DHT22;54387;53.526;49.300;2023-08-06T02:05:55;22.00;64.50
67557;DHT22;54387;53.526;49.300;2023-08-06T02:08:27;22.00;64.50
67557;DHT22;54387;53.526;49.300;2023-08-06T02:10:58;22.00;64.40
67557;DHT22;54387;53.526;49.300;2023-08-06T02:13:30;22.10;64.30
67557;DHT22;54387;53.526;49.300;2023-08-06T02:16:01;22.10;64.40
67557;DHT22;54387;53.526;49.300;2023-08-06T02:18:32;22.00;64.30
67557;DHT22;54387;53.526;49.300;2023-08-06T02:21:04;22.10;64.40
67557;DHT22;54387;53.526;49.300;2023-08-06T02:23:35;22.10;64.30
67557;DHT22;54387;53.526;49.300;2023-08-06T02:26:06;22.10;64.20
67557;DHT22;54387;53.526;49.300;2023-08-06T02:28:38;22.10;64.10
67557;DHT22;54387;53.526;49.300;2023-08-06T02:31:10;22.20;64.10
67557;DHT22;54387;53.526;49.300;2023-08-06T02:33:41;22.20;64.50
67557;DHT22;54387;53.526;49.300;2023-08-06T02:36:13;22.20;63.90
67557;DHT22;54387;53.526;49.300;2023-08-06T02:38:44;22.20;63.90
67557;DHT22;54387;53.526;49.300;2023-08-06T02:41:16;22.20;63.80
67557;DHT22;54387;53.526;49.300;2023-08-06T02:43:47;22.30;63.70
67557;DHT22;54387;53.526;49.300;2023-08-06T02:46:18;22.30;63.60
67557;DHT22;54387;53.526;49.300;2023-08-06T02:48:49;22.30;64.20
67557;DHT22;54387;53.526;49.300;2023-08-06T02:51:21;22.30;63.40
67557;DHT22;54387;53.526;49.300;2023-08-06T02:53:52;22.40;63.40
67557;DHT22;54387;53.526;49.300;2023-08-06T02:56:23;22.40;63.30
67557;DHT22;54387;53.526;49.300;2023-08-06T02:58:55;22.40;63.20
67557;DHT22;54387;53.526;49.300;2023-08-06T03:01:26;22.50;63.10
67557;DHT22;54387;53.526;49.300;2023-08-06T03:03:59;22.50;62.90
67557;DHT22;54387;53.526;49.300;2023-08-06T03:06:30;22.60;62.90
67557;DHT22;54387;53.526;49.300;2023-08-06T03:09:02;22.60;62.80
67557;DHT22;54387;53.526;49.300;2023-08-06T03:11:33;22.70;62.70
67557;DHT22;54387;53.526;49.300;2023-08-06T03:14:04;22.80;62.70
67557;DHT22;54387;53.526;49.300;2023-08-06T03:16:36;22.80;62.50
67557;DHT22;54387;53.526;49.300;2023-08-06T03:19:07;22.90;62.40
67557;DHT22;54387;53.526;49.300;2023-08-06T03:21:38;23.00;62.30
67557;DHT22;54387;53.526;49.300;2023-08-06T03:24:10;23.00;62.10
67557;DHT22;54387;53.526;49.300;2023-08-06T03:26:41;23.10;61.90
67557;DHT22;54387;53.526;49.300;2023-08-06T03:29:12;23.10;61.80
67557;DHT22;54387;53.526;49.300;2023-08-06T03:31:44;23.20;61.70
67557;DHT22;54387;53.526;49.300;2023-08-06T03:34:15;23.20;61.50
67557;DHT22;54387;53.526;49.300;2023-08-06T03:36:46;23.20;61.30
67557;DHT22;54387;53.526;49.300;2023-08-06T03:39:17;23.30;61.20
67557;DHT22;54387;53.526;49.300;2023-08-06T03:41:49;23.40;61.10
67557;DHT22;54387;53.526;49.300;2023-08-06T03:44:20;23.40;60.90
67557;DHT22;54387;53.526;49.300;2023-08-06T03:46:52;23.50;60.80
67557;DHT22;54387;53.526;49.300;2023-08-06T03:49:23;23.50;60.70
67557;DHT22;54387;53.526;49.300;2023-08-06T03:51:54;23.60;60.70
67557;DHT22;54387;53.526;49.300;2023-08-06T03:54:26;23.70;60.60
67557;DHT22;54387;53.526;49.300;2023-08-06T03:56:57;23.80;60.50
67557;DHT22;54387;53.526;49.300;2023-08-06T03:59:28;23.80;60.20
67557;DHT22;54387;53.526;49.300;2023-08-06T04:01:59;23.90;60.10
67557;DHT22;54387;53.526;49.300;2023-08-06T04:04:31;23.90;59.50
67557;DHT22;54387;53.526;49.300;2023-08-06T04:07:02;23.90;59.20
67557;DHT22;54387;53.526;49.300;2023-08-06T04:09:34;24.00;59.00
67557;DHT22;54387;53.526;49.300;2023-08-06T04:12:05;24.10;58.70
67557;DHT22;54387;53.526;49.300;2023-08-06T04:14:37;24.10;58.60
67557;DHT22;54387;53.526;49.300;2023-08-06T04:17:08;24.20;58.60
67557;DHT22;54387;53.526;49.300;2023-08-06T04:19:39;24.30;58.00
67557;DHT22;54387;53.526;49.300;2023-08-06T04:22:11;24.30;57.40
67557;DHT22;54387;53.526;49.300;2023-08-06T04:24:42;24.40;57.10
67557;DHT22;54387;53.526;49.300;2023-08-06T04:27:14;24.40;57.10
67557;DHT22;54387;53.526;49.300;2023-08-06T04:29:46;24.40;56.90
67557;DHT22;54387;53.526;49.300;2023-08-06T04:32:17;24.60;57.00
67557;DHT22;54387;53.526;49.300;2023-08-06T04:34:50;24.60;56.70
67557;DHT22;54387;53.526;49.300;2023-08-06T04:37:21;24.60;56.30
67557;DHT22;54387;53.526;49.300;2023-08-06T04:39:52;24.70;56.10
67557;DHT22;54387;53.526;49.300;2023-08-06T04:42:24;24.80;55.80
67557;DHT22;54387;53.526;49.300;2023-08-06T04:44:56;24.90;55.60
67557;DHT22;54387;53.526;49.300;2023-08-06T04:47:27;24.90;56.20
67557;DHT22;54387;53.526;49.300;2023-08-06T04:49:58;25.00;54.60
67557;DHT22;54387;53.526;49.300;2023-08-06T04:52:30;25.00;54.20
67557;DHT22;54387;53.526;49.300;2023-08-06T04:55:03;25.10;54.10
67557;DHT22;54387;53.526;49.300;2023-08-06T04:57:36;25.10;53.70
67557;DHT22;54387;53.526;49.300;2023-08-06T05:00:08;25.20;53.60
67557;DHT22;54387;53.526;49.300;2023-08-06T05:02:39;25.20;53.50
67557;DHT22;54387;53.526;49.300;2023-08-06T05:05:10;25.30;53.30
67557;DHT22;54387;53.526;49.300;2023-08-06T05:07:42;25.40;53.10
67557;DHT22;54387;53.526;49.300;2023-08-06T05:10:13;25.40;52.60
67557;DHT22;54387;53.526;49.300;2023-08-06T05:12:45;25.40;52.00
67557;DHT22;54387;53.526;49.300;2023-08-06T05:15:16;25.50;51.70
67557;DHT22;54387;53.526;49.300;2023-08-06T05:17:47;25.60;51.40
67557;DHT22;54387;53.526;49.300;2023-08-06T05:20:19;25.70;50.80
67557;DHT22;54387;53.526;49.300;2023-08-06T05:22:50;25.80;50.30
67557;DHT22;54387;53.526;49.300;2023-08-06T05:25:22;25.90;49.20
67557;DHT22;54387;53.526;49.300;2023-08-06T05:27:53;25.90;48.40
67557;DHT22;54387;53.526;49.300;2023-08-06T05:30:26;26.00;48.20
67557;DHT22;54387;53.526;49.300;2023-08-06T05:32:58;26.10;48.60
67557;DHT22;54387;53.526;49.300;2023-08-06T05:35:31;26.10;48.30
67557;DHT22;54387;53.526;49.300;2023-08-06T05:38:02;26.10;48.20
67557;DHT22;54387;53.526;49.300;2023-08-06T05:40:34;26.20;48.20
67557;DHT22;54387;53.526;49.300;2023-08-06T05:43:06;26.20;47.70
67557;DHT22;54387;53.526;49.300;2023-08-06T05:45:37;26.20;47.60
67557;DHT22;54387;53.526;49.300;2023-08-06T05:48:08;26.30;47.70
67557;DHT22;54387;53.526;49.300;2023-08-06T05:50:40;26.30;47.80
67557;DHT22;54387;53.526;49.300;2023-08-06T05:53:12;26.40;48.00
67557;DHT22;54387;53.526;49.300;2023-08-06T05:55:44;26.50;47.60
67557;DHT22;54387;53.526;49.300;2023-08-06T05:58:16;26.50;46.70
67557;DHT22;54387;53.526;49.300;2023-08-06T06:00:47;26.60;46.60
67557;DHT22;54387;53.526;49.300;2023-08-06T06:03:18;26.50;46.80
67557;DHT22;54387;53.526;49.300;2023-08-06T06:05:50;26.60;45.90
67557;DHT22;54387;53.526;49.300;2023-08-06T06:08:21;26.60;46.00
67557;DHT22;54387;53.526;49.300;2023-08-06T06:10:52;26.60;46.00
67557;DHT22;54387;53.526;49.300;2023-08-06T06:13:24;26.70;45.80
67557;DHT22;54387;53.526;49.300;2023-08-06T06:15:55;26.80;45.90
67557;DHT22;54387;53.526;49.300;2023-08-06T06:18:27;26.80;46.00
67557;DHT22;54387;53.526;49.300;2023-08-06T06:20:58;26.90;45.90
67557;DHT22;54387;53.526;49.300;2023-08-06T06:23:29;26.90;44.90
67557;DHT22;54387;53.526;49.300;2023-08-06T06:26:01;26.90;44.60
67557;DHT22;54387;53.526;49.300;2023-08-06T06:28:32;27.00;44.50
67557;DHT22;54387;53.526;49.300;2023-08-06T06:31:04;27.00;44.70
67557;DHT22;54387;53.526;49.300;2023-08-06T06:33:35;27.10;45.10
67557;DHT22;54387;53.526;49.300;2023-08-06T06:36:07;27.10;45.20
67557;DHT22;54387;53.526;49.300;2023-08-06T06:38:39;27.20;44.70
67557;DHT22;54387;53.526;49.300;2023-08-06T06:41:10;27.20;44.30
67557;DHT22;54387;53.526;49.300;2023-08-06T06:43:42;27.30;43.90
67557;DHT22;54387;53.526;49.300;2023-08-06T06:46:13;27.30;43.90
67557;DHT22;54387;53.526;49.300;2023-08-06T06:48:45;27.30;43.70
67557;DHT22;54387;53.526;49.300;2023-08-06T06:51:16;27.40;43.40
67557;DHT22;54387;53.526;49.300;2023-08-06T06:53:47;27.40;43.30
67557;DHT22;54387;53.526;49.300;2023-08-06T06:56:19;27.50;43.40
67557;DHT22;54387;53.526;49.300;2023-08-06T06:58:50;27.50;43.10
67557;DHT22;54387;53.526;49.300;2023-08-06T07:01:21;27.50;43.00
67557;DHT22;54387;53.526;49.300;2023-08-06T07:03:53;27.50;42.60
67557;DHT22;54387;53.526;49.300;2023-08-06T07:06:24;27.60;42.60
67557;DHT22;54387;53.526;49.300;2023-08-06T07:08:55;27.60;42.90
67557;DHT22;54387;53.526;49.300;2023-08-06T07:11:27;27.60;42.60
67557;DHT22;54387;53.526;49.300;2023-08-06T07:13:58;27.70;42.10
67557;DHT22;54387;53.526;49.300;2023-08-06T07:16:29;27.70;42.00
67557;DHT22;54387;53.526;49.300;2023-08-06T07:19:01;27.80;42.20
67557;DHT22;54387;53.526;49.300;2023-08-06T07:21:32;27.80;41.30
67557;DHT22;54387;53.526;49.300;2023-08-06T07:24:04;27.80;41.10
67557;DHT22;54387;53.526;49.300;2023-08-06T07:26:35;27.90;41.00
67557;DHT22;54387;53.526;49.300;2023-08-06T07:29:06;27.90;41.00
67557;DHT22;54387;53.526;49.300;2023-08-06T07:31:37;27.90;40.90
67557;DHT22;54387;53.526;49.300;2023-08-06T07:34:09;28.00;41.00
67557;DHT22;54387;53.526;49.300;2023-08-06T07:36:42;28.00;40.20
67557;DHT22;54387;53.526;49.300;2023-08-06T07:39:14;28.10;40.10
67557;DHT22;54387;53.526;49.300;2023-08-06T07:41:47;28.10;40.10
67557;DHT22;54387;53.526;49.300;2023-08-06T07:44:18;28.10;40.30
67557;DHT22;54387;53.526;49.300;2023-08-06T07:46:50;28.20;40.30
67557;DHT22;54387;53.526;49.300;2023-08-06T07:49:21;28.30;40.50
67557;DHT22;54387;53.526;49.300;2023-08-06T07:51:53;28.30;40.50
67557;DHT22;54387;53.526;49.300;2023-08-06T07:54:24;28.40;40.60
67557;DHT22;54387;53.526;49.300;2023-08-06T07:56:55;28.40;40.70
67557;DHT22;54387;53.526;49.300;2023-08-06T07:59:27;28.50;40.20
67557;DHT22;54387;53.526;49.300;2023-08-06T08:01:58;28.50;39.80
67557;DHT22;54387;53.526;49.300;2023-08-06T08:04:30;28.50;39.90
67557;DHT22;54387;53.526;49.300;2023-08-06T08:07:01;28.60;39.40
67557;DHT22;54387;53.526;49.300;2023-08-06T08:09:34;28.70;39.40
67557;DHT22;54387;53.526;49.300;2023-08-06T08:12:05;28.70;38.90
67557;DHT22;54387;53.526;49.300;2023-08-06T08:14:37;28.70;38.90
67557;DHT22;54387;53.526;49.300;2023-08-06T08:17:08;28.80;38.90
67557;DHT22;54387;53.526;49.300;2023-08-06T08:19:40;28.90;39.00
67557;DHT22;54387;53.526;49.300;2023-08-06T08:22:11;28.90;38.50
67557;DHT22;54387;53.526;49.300;2023-08-06T08:24:43;28.90;38.30
67557;DHT22;54387;53.526;49.300;2023-08-06T08:27:14;29.00;38.20
67557;DHT22;54387;53.526;49.300;2023-08-06T08:29:46;29.00;38.20
67557;DHT22;54387;53.526;49.300;2023-08-06T08:32:17;29.10;38.30
67557;DHT22;54387;53.526;49.300;2023-08-06T08:34:48;29.20;37.80
67557;DHT22;54387;53.526;49.300;2023-08-06T08:37:20;29.30;37.60
67557;DHT22;54387;53.526;49.300;2023-08-06T08:39:51;29.30;37.70
67557;DHT22;54387;53.526;49.300;2023-08-06T08:42:23;29.40;38.00
67557;DHT22;54387;53.526;49.300;2023-08-06T08:44:55;29.50;37.70
67557;DHT22;54387;53.526;49.300;2023-08-06T08:47:26;29.50;37.60
67557;DHT22;54387;53.526;49.300;2023-08-06T08:49:58;29.60;37.60
67557;DHT22;54387;53.526;49.300;2023-08-06T08:52:30;29.70;37.90
67557;DHT22;54387;53.526;49.300;2023-08-06T08:55:02;29.70;37.10
67557;DHT22;54387;53.526;49.300;2023-08-06T08:57:34;29.80;37.00
67557;DHT22;54387;53.526;49.300;2023-08-06T09:00:05;29.80;36.50
67557;DHT22;54387;53.526;49.300;2023-08-06T09:02:36;29.90;36.50
67557;DHT22;54387;53.526;49.300;2023-08-06T09:05:09;29.90;36.30
67557;DHT22;54387;53.526;49.300;2023-08-06T09:07:45;29.90;36.30
67557;DHT22;54387;53.526;49.300;2023-08-06T09:10:18;29.90;36.30
67557;DHT22;54387;53.526;49.300;2023-08-06T09:12:52;29.90;36.30
67557;DHT22;54387;53.526;49.300;2023-08-06T09:15:25;30.00;36.50
67557;DHT22;54387;53.526;49.300;2023-08-06T09:17:57;30.00;36.50
67557;DHT22;54387;53.526;49.300;2023-08-06T09:20:28;30.10;36.50
67557;DHT22;54387;53.526;49.300;2023-08-06T09:23:03;30.10;36.60
67557;DHT22;54387;53.526;49.300;2023-08-06T09:25:38;30.30;36.10
67557;DHT22;54387;53.526;49.300;2023-08-06T09:28:10;30.70;36.30
67557;DHT22;54387;53.526;49.300;2023-08-06T09:30:41;31.10;35.40
67557;DHT22;54387;53.526;49.300;2023-08-06T09:33:14;31.70;34.90
67557;DHT22;54387;53.526;49.300;2023-08-06T09:35:48;32.50;34.00
67557;DHT22;54387;53.526;49.300;2023-08-06T09:38:19;33.60;33.30
67557;DHT22;54387;53.526;49.300;2023-08-06T09:40:51;35.10;31.40
67557;DHT22;54387;53.526;49.300;2023-08-06T09:43:22;36.70;30.00
67557;DHT22;54387;53.526;49.300;2023-08-06T09:45:54;38.60;28.30
67557;DHT22;54387;53.526;49.300;2023-08-06T09:48:26;40.30;27.50
67557;DHT22;54387;53.526;49.300;2023-08-06T09:50:57;41.90;26.00
67557;DHT22;54387;53.526;49.300;2023-08-06T09:53:28;42.20;25.30
67557;DHT22;54387;53.526;49.300;2023-08-06T09:56:00;42.70;24.70
67557;DHT22;54387;53.526;49.300;2023-08-06T09:58:32;43.60;24.50
67557;DHT22;54387;53.526;49.300;2023-08-06T10:01:03;44.40;24.30
67557;DHT22;54387;53.526;49.300;2023-08-06T10:03:35;45.50;23.50
67557;DHT22;54387;53.526;49.300;2023-08-06T10:06:08;46.50;22.70
67557;DHT22;54387;53.526;49.300;2023-08-06T10:08:39;47.10;22.40
67557;DHT22;54387;53.526;49.300;2023-08-06T10:11:13;47.80;21.70
67557;DHT22;54387;53.526;49.300;2023-08-06T10:13:45;48.50;21.70
67557;DHT22;54387;53.526;49.300;2023-08-06T10:16:17;49.50;21.70
67557;DHT22;54387;53.526;49.300;2023-08-06T10:18:49;50.70;21.40
67557;DHT22;54387;53.526;49.300;2023-08-06T10:21:23;51.60;21.50
67557;DHT22;54387;53.526;49.300;2023-08-06T10:23:54;52.80;20.60
67557;DHT22;54387;53.526;49.300;2023-08-06T10:26:29;53.50;20.20
67557;DHT22;54387;53.526;49.300;2023-08-06T10:29:01;54.10;19.90
67557;DHT22;54387;53.526;49.300;2023-08-06T10:32:14;54.40;19.70
67557;DHT22;54387;53.526;49.300;2023-08-06T10:37:17;54.20;19.40
67557;DHT22;54387;53.526;49.300;2023-08-06T10:39:48;53.90;19.40
67557;DHT22;54387;53.526;49.300;2023-08-06T10:42:22;54.00;19.30
67557;DHT22;54387;53.526;49.300;2023-08-06T10:45:22;54.00;19.40
67557;DHT22;54387;53.526;49.300;2023-08-06T10:47:42;54.10;19.20
67557;DHT22;54387;53.526;49.300;2023-08-06T10:50:10;54.30;19.50
67557;DHT22;54387;53.526;49.300;2023-08-06T10:52:37;54.70;19.20
67557;DHT22;54387;53.526;49.300;2023-08-06T10:55:04;54.70;19.00
67557;DHT22;54387;53.526;49.300;2023-08-06T10:57:30;54.70;18.70
67557;DHT22;54387;53.526;49.300;2023-08-06T10:59:56;53.70;19.10
67557;DHT22;54387;53.526;49.300;2023-08-06T11:02:23;53.10;18.90
67557;DHT22;54387;53.526;49.300;2023-08-06T11:04:49;53.10;19.10
67557;DHT22;54387;53.526;49.300;2023-08-06T11:07:15;53.40;19.00
67557;DHT22;54387;53.526;49.300;2023-08-06T11:09:42;53.30;19.10
67557;DHT22;54387;53.526;49.300;2023-08-06T11:12:09;53.40;18.80
67557;DHT22;54387;53.526;49.300;2023-08-06T11:14:36;53.60;18.90
67557;DHT22;54387;53.526;49.300;2023-08-06T11:17:02;53.80;18.70
67557;DHT22;54387;53.526;49.300;2023-08-06T11:19:28;53.50;18.70
67557;DHT22;54387;53.526;49.300;2023-08-06T11:21:55;53.00;18.70
67557;DHT22;54387;53.526;49.300;2023-08-06T11:24:23;52.40;18.90
67557;DHT22;54387;53.526;49.300;2023-08-06T11:26:50;52.10;19.00
67557;DHT22;54387;53.526;49.300;2023-08-06T11:29:16;52.20;19.20
67557;DHT22;54387;53.526;49.300;2023-08-06T11:31:42;51.90;19.20
67557;DHT22;54387;53.526;49.300;2023-08-06T11:34:08;51.10;18.90
67557;DHT22;54387;53.526;49.300;2023-08-06T11:36:37;49.20;19.30
67557;DHT22;54387;53.526;49.300;2023-08-06T11:39:05;47.20;19.90
67557;DHT22;54387;53.526;49.300;2023-08-06T11:41:32;45.30;20.40
67557;DHT22;54387;53.526;49.300;2023-08-06T11:43:59;43.40;21.00
67557;DHT22;54387;53.526;49.300;2023-08-06T11:46:25;41.70;21.90
67557;DHT22;54387;53.526;49.300;2023-08-06T11:48:52;40.20;22.70
67557;DHT22;54387;53.526;49.300;2023-08-06T11:51:18;39.00;23.60
67557;DHT22;54387;53.526;49.300;2023-08-06T11:53:51;38.10;24.00
67557;DHT22;54387;53.526;49.300;2023-08-06T11:56:20;37.70;24.50
67557;DHT22;54387;53.526;49.300;2023-08-06T11:58:46;37.80;24.40
67557;DHT22;54387;53.526;49.300;2023-08-06T12:01:14;38.70;24.00
67557;DHT22;54387;53.526;49.300;2023-08-06T12:03:40;39.60;23.30
67557;DHT22;54387;53.526;49.300;2023-08-06T12:06:07;39.80;23.00
67557;DHT22;54387;53.526;49.300;2023-08-06T12:08:33;39.40;23.10
67557;DHT22;54387;53.526;49.300;2023-08-06T12:10:59;39.00;23.40
67557;DHT22;54387;53.526;49.300;2023-08-06T12:13:26;38.40;23.70
67557;DHT22;54387;53.526;49.300;2023-08-06T12:15:53;37.80;24.10
67557;DHT22;54387;53.526;49.300;2023-08-06T12:18:20;37.30;24.40
67557;DHT22;54387;53.526;49.300;2023-08-06T12:20:46;36.90;24.70
67557;DHT22;54387;53.526;49.300;2023-08-06T12:23:12;36.70;25.10
67557;DHT22;54387;53.526;49.300;2023-08-06T12:25:41;37.30;24.70
67557;DHT22;54387;53.526;49.300;2023-08-06T12:28:07;38.60;23.90
67557;DHT22;54387;53.526;49.300;2023-08-06T12:30:35;40.00;23.10
67557;DHT22;54387;53.526;49.300;2023-08-06T12:33:01;41.30;22.40
67557;DHT22;54387;53.526;49.300;2023-08-06T12:35:27;42.50;22.10
67557;DHT22;54387;53.526;49.300;2023-08-06T12:37:53;42.80;21.70
67557;DHT22;54387;53.526;49.300;2023-08-06T12:40:20;43.30;21.70
67557;DHT22;54387;53.526;49.300;2023-08-06T12:42:46;44.00;21.30
67557;DHT22;54387;53.526;49.300;2023-08-06T12:45:13;44.90;21.30
67557;DHT22;54387;53.526;49.300;2023-08-06T12:47:40;45.70;20.80
67557;DHT22;54387;53.526;49.300;2023-08-06T12:50:07;46.70;20.20
67557;DHT22;54387;53.526;49.300;2023-08-06T12:52:33;47.40;19.90
67557;DHT22;54387;53.526;49.300;2023-08-06T12:54:59;47.90;19.10
67557;DHT22;54387;53.526;49.300;2023-08-06T12:57:25;48.10;18.90
67557;DHT22;54387;53.526;49.300;2023-08-06T12:59:53;48.50;19.00
67557;DHT22;54387;53.526;49.300;2023-08-06T13:02:19;48.80;18.60
67557;DHT22;54387;53.526;49.300;2023-08-06T13:04:46;48.60;18.40
67557;DHT22;54387;53.526;49.300;2023-08-06T13:07:12;47.80;18.70
67557;DHT22;54387;53.526;49.300;2023-08-06T13:09:38;46.80;18.80
67557;DHT22;54387;53.526;49.300;2023-08-06T13:12:04;46.00;19.00
67557;DHT22;54387;53.526;49.300;2023-08-06T13:14:31;45.40;19.10
67557;DHT22;54387;53.526;49.300;2023-08-06T13:16:58;45.00;19.30
67557;DHT22;54387;53.526;49.300;2023-08-06T13:19:24;44.70;19.40
67557;DHT22;54387;53.526;49.300;2023-08-06T13:24:16;43.70;19.70
67557;DHT22;54387;53.526;49.300;2023-08-06T13:26:43;42.80;19.80
67557;DHT22;54387;53.526;49.300;2023-08-06T13:29:09;41.90;20.40
67557;DHT22;54387;53.526;49.300;2023-08-06T13:31:36;40.90;20.60
67557;DHT22;54387;53.526;49.300;2023-08-06T13:34:02;39.60;21.10
67557;DHT22;54387;53.526;49.300;2023-08-06T13:36:28;38.60;21.80
67557;DHT22;54387;53.526;49.300;2023-08-06T13:38:55;37.90;22.40
67557;DHT22;54387;53.526;49.300;2023-08-06T13:41:21;37.30;23.00
67557;DHT22;54387;53.526;49.300;2023-08-06T13:43:47;36.60;23.30
67557;DHT22;54387;53.526;49.300;2023-08-06T13:46:13;36.00;23.60
67557;DHT22;54387;53.526;49.300;2023-08-06T13:48:42;35.50;23.80
67557;DHT22;54387;53.526;49.300;2023-08-06T13:51:09;35.20;23.90
67557;DHT22;54387;53.526;49.300;2023-08-06T13:53:36;34.90;24.00
67557;DHT22;54387;53.526;49.300;2023-08-06T13:56:03;34.60;24.10
67557;DHT22;54387;53.526;49.300;2023-08-06T13:58:29;34.60;25.10
67557;DHT22;54387;53.526;49.300;2023-08-06T14:00:55;34.80;24.30
67557;DHT22;54387;53.526;49.300;2023-08-06T14:03:23;34.80;24.30
67557;DHT22;54387;53.526;49.300;2023-08-06T14:05:49;34.60;24.40
67557;DHT22;54387;53.526;49.300;2023-08-06T14:08:15;34.40;24.70
67557;DHT22;54387;53.526;49.300;2023-08-06T14:10:44;34.10;24.90
67557;DHT22;54387;53.526;49.300;2023-08-06T14:13:10;33.90;25.10
67557;DHT22;54387;53.526;49.300;2023-08-06T14:15:36;33.70;25.10
67557;DHT22;54387;53.526;49.300;2023-08-06T14:18:05;33.70;25.30
67557;DHT22;54387;53.526;49.300;2023-08-06T14:20:31;33.50;25.40
67557;DHT22;54387;53.526;49.300;2023-08-06T14:22:57;33.40;25.70
67557;DHT22;54387;53.526;49.300;2023-08-06T14:25:23;33.40;25.90
67557;DHT22;54387;53.526;49.300;2023-08-06T14:27:49;33.40;25.90
67557;DHT22;54387;53.526;49.300;2023-08-06T14:30:15;33.30;26.00
67557;DHT22;54387;53.526;49.300;2023-08-06T14:32:41;33.30;26.10
67557;DHT22;54387;53.526;49.300;2023-08-06T14:35:07;33.30;26.10
67557;DHT22;54387;53.526;49.300;2023-08-06T14:37:33;33.20;26.30
67557;DHT22;54387;53.526;49.300;2023-08-06T14:39:59;33.00;26.30
67557;DHT22;54387;53.526;49.300;2023-08-06T14:42:25;32.80;26.70
67557;DHT22;54387;53.526;49.300;2023-08-06T14:44:51;33.00;26.90
67557;DHT22;54387;53.526;49.300;2023-08-06T14:47:17;33.40;26.80
67557;DHT22;54387;53.526;49.300;2023-08-06T14:49:43;34.00;26.40
67557;DHT22;54387;53.526;49.300;2023-08-06T14:52:10;34.60;25.90
67557;DHT22;54387;53.526;49.300;2023-08-06T14:54:36;34.90;25.50
67557;DHT22;54387;53.526;49.300;2023-08-06T14:57:02;34.80;25.30
67557;DHT22;54387;53.526;49.300;2023-08-06T14:59:28;34.50;25.50
67557;DHT22;54387;53.526;49.300;2023-08-06T15:01:54;33.90;25.60
67557;DHT22;54387;53.526;49.300;2023-08-06T15:04:20;33.50;26.20
67557;DHT22;54387;53.526;49.300;2023-08-06T15:06:48;32.90;26.80
67557;DHT22;54387;53.526;49.300;2023-08-06T15:09:14;32.40;26.90
67557;DHT22;54387;53.526;49.300;2023-08-06T15:11:40;32.00;27.30
67557;DHT22;54387;53.526;49.300;2023-08-06T15:14:06;31.60;28.00
67557;DHT22;54387;53.526;49.300;2023-08-06T15:16:33;31.20;28.30
67557;DHT22;54387;53.526;49.300;2023-08-06T15:19:00;30.90;28.70
67557;DHT22;54387;53.526;49.300;2023-08-06T15:21:26;30.60;29.00
67557;DHT22;54387;53.526;49.300;2023-08-06T15:23:52;30.30;29.30
67557;DHT22;54387;53.526;49.300;2023-08-06T15:26:18;30.00;29.50
67557;DHT22;54387;53.526;49.300;2023-08-06T15:28:45;29.90;30.00
67557;DHT22;54387;53.526;49.300;2023-08-06T15:31:12;29.60;30.10
67557;DHT22;54387;53.526;49.300;2023-08-06T15:33:38;29.40;30.40
67557;DHT22;54387;53.526;49.300;2023-08-06T15:36:04;29.30;30.70
67557;DHT22;54387;53.526;49.300;2023-08-06T15:38:30;29.10;31.10
67557;DHT22;54387;53.526;49.300;2023-08-06T15:40:56;29.00;31.30